Time;durP1;ratioP1;P1;durP2;ratioP2;P2;SDS_P1;SDS_P2;PMS_P1;PMS_P2;Temp;Humidity;BMP_temperature;BMP_pressure;BME280_temperature;BME280_humidity;BME280_pressure;Samples;Min_cycle;Max_cycle;Signal;HPM_P1;HPM_P2
2024/01/01 00:01:04;;;;;;;;;;;3.40;99.90;;;;;;5054609;28;20056;-78
2024/01/01 00:03:51;;;;;;;67.32;32.70;;;3.40;99.90;;;;;;5061383;28;19984;-77
2024/01/01 00:06:38;;;;;;;63.22;33.50;;;3.60;99.90;;;;;;5057977;28;20044;-79
2024/01/01 00:09:26;;;;;;;49.15;24.15;;;3.60;99.90;;;;;;5061959;28;20694;-76
2024/01/01 00:12:14;;;;;;;36.50;18.63;;;3.50;99.90;;;;;;5065977;28;20162;-77
2024/01/01 00:15:03;;;;;;;26.10;14.27;;;3.60;99.90;;;;;;5066724;28;20045;-79
2024/01/01 00:17:51;;;;;;;32.53;16.00;;;3.70;99.90;;;;;;5074900;28;20055;-77
2024/01/01 00:20:41;;;;;;;22.77;11.80;;;3.80;99.90;;;;;;5081482;28;20082;-78
2024/01/01 00:23:29;;;;;;;21.85;11.27;;;3.80;99.90;;;;;;5077715;28;20056;-76
2024/01/01 00:26:16;;;;;;;22.30;11.52;;;3.80;99.90;;;;;;5057605;28;20049;-79
2024/01/01 00:29:07;;;;;;;23.58;10.98;;;3.80;99.90;;;;;;5062341;28;20052;-79
2024/01/01 00:31:55;;;;;;;26.77;13.05;;;3.90;99.90;;;;;;5062100;28;20041;-77
2024/01/01 00:34:44;;;;;;;25.48;11.00;;;4.00;99.90;;;;;;5074217;28;20029;-76
2024/01/01 00:37:31;;;;;;;26.00;13.50;;;4.10;99.90;;;;;;5051437;28;20048;-79
2024/01/01 00:40:20;;;;;;;30.73;14.43;;;4.10;99.90;;;;;;5026356;28;20037;-79
2024/01/01 00:43:08;;;;;;;23.75;12.40;;;4.10;99.90;;;;;;5043054;28;20128;-79
2024/01/01 00:45:56;;;;;;;20.00;9.85;;;4.10;99.90;;;;;;5058927;28;20040;-76
2024/01/01 00:48:43;;;;;;;24.80;10.70;;;4.00;99.90;;;;;;5076893;28;20051;-76
2024/01/01 00:51:30;;;;;;;30.67;13.55;;;4.00;99.90;;;;;;5080124;28;20155;-78
2024/01/01 00:54:20;;;;;;;21.60;11.75;;;4.00;99.90;;;;;;5059064;28;20048;-78
2024/01/01 00:57:08;;;;;;;24.48;12.60;;;3.90;99.90;;;;;;5069146;28;20056;-74
2024/01/01 00:59:55;;;;;;;23.80;12.15;;;3.90;99.90;;;;;;5073346;28;20125;-79
2024/01/01 01:02:45;;;;;;;20.52;10.00;;;4.00;99.90;;;;;;5060767;28;20044;-79
2024/01/01 01:05:32;;;;;;;25.45;9.35;;;4.00;99.90;;;;;;5039315;28;20244;-80
2024/01/01 01:08:30;;;;;;;21.30;10.27;;;4.10;99.90;;;;;;5025124;28;20136;-80
2024/01/01 01:11:19;;;;;;;19.85;10.50;;;4.20;99.90;;;;;;5037100;28;20041;-79
2024/01/01 01:14:08;;;;;;;17.75;9.25;;;4.20;99.90;;;;;;5026236;28;20041;-81
2024/01/01 01:16:56;;;;;;;19.85;9.88;;;4.40;99.90;;;;;;5047299;28;20068;-77
2024/01/01 01:19:44;;;;;;;26.83;10.48;;;4.40;99.90;;;;;;5040258;28;20037;-76
2024/01/01 01:22:36;;;;;;;24.92;10.60;;;4.40;99.90;;;;;;5050086;28;20144;-75
2024/01/01 01:25:24;;;;;;;18.20;10.10;;;4.40;99.90;;;;;;5033883;28;20040;-79
2024/01/01 01:28:22;;;;;;;20.52;10.60;;;4.40;99.90;;;;;;5039934;28;20042;-80
2024/01/01 01:31:09;;;;;;;23.23;11.82;;;4.40;99.90;;;;;;5039978;28;20072;-79
2024/01/01 01:33:57;;;;;;;22.50;11.57;;;4.30;99.90;;;;;;5045789;28;20033;-77
2024/01/01 01:36:53;;;;;;;21.60;12.13;;;4.20;99.90;;;;;;5059437;28;20055;-78
2024/01/01 01:39:42;;;;;;;25.48;12.70;;;4.00;99.90;;;;;;5051097;28;20052;-79
2024/01/01 01:42:31;;;;;;;20.23;10.43;;;3.90;99.90;;;;;;5047037;28;20079;-79
2024/01/01 01:45:22;;;;;;;26.48;11.35;;;3.90;99.90;;;;;;5032148;28;20048;-77
2024/01/01 01:48:11;;;;;;;24.92;10.57;;;3.90;99.90;;;;;;5053135;28;20045;-77
2024/01/01 01:51:02;;;;;;;22.08;11.27;;;3.90;99.90;;;;;;5063510;28;20647;-77
2024/01/01 01:53:50;;;;;;;20.70;10.52;;;3.90;99.90;;;;;;5059769;28;20420;-78
2024/01/01 01:56:38;;;;;;;23.65;11.23;;;3.80;99.90;;;;;;5057535;28;20053;-78
2024/01/01 01:59:26;;;;;;;25.08;11.07;;;3.80;99.90;;;;;;5056036;28;20044;-79
2024/01/01 02:02:20;;;;;;;20.52;10.80;;;3.70;99.90;;;;;;5047235;28;20047;-77
2024/01/01 02:05:08;;;;;;;22.95;12.15;;;3.70;99.90;;;;;;5046801;28;20049;-76
2024/01/01 02:07:56;;;;;;;25.27;12.35;;;3.60;99.90;;;;;;5055768;28;20054;-77
2024/01/01 02:10:44;;;;;;;21.67;11.70;;;3.60;99.90;;;;;;5058097;28;20045;-76
2024/01/01 02:13:33;;;;;;;25.67;11.80;;;3.60;99.90;;;;;;5058015;28;20036;-77
2024/01/01 02:16:21;;;;;;;23.45;12.18;;;3.60;99.90;;;;;;5038589;28;20060;-78
2024/01/01 02:19:28;;;;;;;27.15;11.70;;;3.70;99.90;;;;;;5042244;28;20490;-79
2024/01/01 02:22:16;;;;;;;25.00;12.00;;;3.60;99.90;;;;;;5027343;28;20121;-78
2024/01/01 02:25:04;;;;;;;22.95;12.48;;;3.70;99.90;;;;;;5055511;28;20053;-80
2024/01/01 02:27:51;;;;;;;24.73;12.68;;;3.70;99.90;;;;;;5063557;28;20048;-76
2024/01/01 02:30:41;;;;;;;23.95;12.40;;;3.70;99.90;;;;;;5068039;28;20043;-79
2024/01/01 02:33:28;;;;;;;26.02;13.13;;;3.70;99.90;;;;;;5067523;28;20040;-79
2024/01/01 02:36:16;;;;;;;26.13;13.52;;;3.80;99.90;;;;;;5034471;28;20037;-75
2024/01/01 02:39:05;;;;;;;25.73;13.65;;;3.80;99.90;;;;;;5064079;28;20052;-79
2024/01/01 02:41:54;;;;;;;21.80;12.07;;;3.80;99.90;;;;;;5064367;28;20527;-79
2024/01/01 02:44:42;;;;;;;22.25;11.63;;;3.90;99.90;;;;;;5037427;28;20454;-77
2024/01/01 02:47:29;;;;;;;24.10;10.73;;;3.80;99.90;;;;;;5037044;28;20049;-78
2024/01/01 02:50:20;;;;;;;24.52;11.32;;;3.90;99.90;;;;;;5038368;28;20045;-77
2024/01/01 02:53:07;;;;;;;21.98;11.57;;;3.90;99.90;;;;;;5041413;28;20056;-77
2024/01/01 02:55:54;;;;;;;23.35;11.15;;;3.80;99.90;;;;;;5041697;28;20047;-77
2024/01/01 02:58:43;;;;;;;23.55;11.68;;;3.90;99.90;;;;;;5038218;28;20052;-80
2024/01/01 03:01:32;;;;;;;21.60;10.18;;;3.90;99.90;;;;;;5028109;28;20049;-80
2024/01/01 03:04:19;;;;;;;26.70;10.77;;;3.90;99.90;;;;;;5042182;28;20048;-79
2024/01/01 03:07:08;;;;;;;22.95;10.05;;;3.90;99.90;;;;;;5027496;28;20495;-80
2024/01/01 03:09:57;;;;;;;19.85;8.98;;;4.00;99.90;;;;;;5055246;28;20045;-78
2024/01/01 03:12:44;;;;;;;14.90;8.60;;;4.10;99.90;;;;;;5064839;28;20040;-74
2024/01/01 03:15:33;;;;;;;13.55;7.50;;;4.10;99.90;;;;;;5064737;28;20052;-78
2024/01/01 03:18:21;;;;;;;20.30;8.57;;;4.10;99.90;;;;;;5042978;28;20055;-78
2024/01/01 03:21:08;;;;;;;14.80;7.70;;;4.00;99.90;;;;;;5040861;28;20041;-79
2024/01/01 03:23:57;;;;;;;14.90;6.63;;;4.10;99.90;;;;;;5043755;28;20045;-78
2024/01/01 03:26:45;;;;;;;20.38;7.40;;;4.20;99.90;;;;;;5040299;28;20046;-78
2024/01/01 03:29:33;;;;;;;15.98;6.60;;;4.20;99.90;;;;;;5043535;28;20079;-77
2024/01/01 03:32:22;;;;;;;15.15;6.75;;;4.20;99.90;;;;;;5039573;28;20049;-79
2024/01/01 03:35:09;;;;;;;13.32;5.63;;;4.30;99.90;;;;;;5045314;28;20037;-78
2024/01/01 03:38:01;;;;;;;9.60;5.47;;;4.30;99.90;;;;;;5047258;28;20080;-77
2024/01/01 03:40:48;;;;;;;14.65;5.28;;;4.30;99.90;;;;;;5043088;28;20406;-76
2024/01/01 03:43:36;;;;;;;11.80;5.18;;;4.30;99.90;;;;;;5020892;28;20045;-80
2024/01/01 03:46:23;;;;;;;14.85;5.13;;;4.30;99.90;;;;;;5042090;28;20134;-79
2024/01/01 03:49:11;;;;;;;11.57;5.70;;;4.30;99.90;;;;;;5044253;28;20478;-78
2024/01/01 03:51:59;;;;;;;8.70;4.78;;;4.20;99.90;;;;;;5046418;28;20170;-78
2024/01/01 03:54:46;;;;;;;13.07;4.90;;;4.20;99.90;;;;;;5060751;28;20051;-79
2024/01/01 03:57:34;;;;;;;10.05;4.88;;;4.20;99.90;;;;;;5041120;28;20044;-73
2024/01/01 04:00:21;;;;;;;8.73;4.60;;;4.10;99.90;;;;;;5059696;28;20082;-77
2024/01/01 04:03:10;;;;;;;10.02;3.95;;;4.10;99.90;;;;;;5059720;28;20045;-80
2024/01/01 04:06:01;;;;;;;11.55;4.38;;;4.00;99.90;;;;;;5042057;28;20557;-79
2024/01/01 04:08:49;;;;;;;10.73;4.75;;;4.00;99.90;;;;;;5041849;28;20179;-78
2024/01/01 04:11:36;;;;;;;8.68;4.13;;;3.90;99.90;;;;;;5041924;28;20068;-78
2024/01/01 04:14:24;;;;;;;9.85;4.65;;;3.80;99.90;;;;;;5065782;28;20043;-77
2024/01/01 04:17:12;;;;;;;8.25;4.05;;;3.80;99.90;;;;;;5043364;28;20041;-77
2024/01/01 04:19:59;;;;;;;6.25;3.83;;;3.80;99.90;;;;;;5037734;28;20049;-79
2024/01/01 04:22:51;;;;;;;10.63;3.95;;;3.80;99.90;;;;;;5039107;28;20041;-77
2024/01/01 04:25:40;;;;;;;5.50;3.60;;;3.80;99.90;;;;;;5040246;28;20374;-81
2024/01/01 04:28:29;;;;;;;7.03;3.22;;;3.80;99.90;;;;;;5041144;28;20067;-77
2024/01/01 04:31:16;;;;;;;10.32;3.08;;;3.80;99.90;;;;;;5038861;28;20493;-77
2024/01/01 04:34:05;;;;;;;8.40;3.15;;;3.70;99.90;;;;;;5047724;28;20048;-75
2024/01/01 04:37:00;;;;;;;11.80;3.03;;;3.70;99.90;;;;;;5025259;28;20175;-77
2024/01/01 04:39:47;;;;;;;8.82;2.92;;;3.60;99.90;;;;;;5049962;28;20486;-77
2024/01/01 04:42:34;;;;;;;4.85;2.38;;;3.60;99.90;;;;;;5061408;28;20052;-75
2024/01/01 04:45:23;;;;;;;7.45;2.40;;;3.60;99.90;;;;;;5070672;28;20648;-78
2024/01/01 04:48:11;;;;;;;7.13;2.50;;;3.60;99.90;;;;;;5066804;28;20655;-76
2024/01/01 04:51:00;;;;;;;7.82;2.20;;;3.60;99.90;;;;;;5059355;28;20063;-77
2024/01/01 04:53:48;;;;;;;4.25;1.70;;;3.60;99.90;;;;;;5054488;28;20048;-76
2024/01/01 04:56:37;;;;;;;4.97;2.17;;;3.60;99.90;;;;;;5057727;28;20052;-78
2024/01/01 04:59:27;;;;;;;5.65;2.28;;;3.70;99.90;;;;;;5056217;28;20035;-80
2024/01/01 05:02:17;;;;;;;8.13;2.10;;;3.70;99.90;;;;;;5056934;28;20075;-79
2024/01/01 05:05:10;;;;;;;8.15;2.22;;;3.70;99.90;;;;;;5062727;28;20129;-78
2024/01/01 05:07:57;;;;;;;5.93;2.10;;;3.60;99.90;;;;;;5061051;28;20048;-78
2024/01/01 05:10:44;;;;;;;6.50;1.85;;;3.50;99.90;;;;;;5042951;28;20047;-78
2024/01/01 05:13:32;;;;;;;10.32;2.72;;;3.40;99.90;;;;;;5056419;28;20049;-79
2024/01/01 05:16:19;;;;;;;8.25;2.30;;;3.50;99.90;;;;;;5057618;28;20036;-79
2024/01/01 05:19:08;;;;;;;6.72;2.30;;;3.50;99.90;;;;;;5058771;28;20540;-78
2024/01/01 05:21:56;;;;;;;9.70;2.28;;;3.40;99.90;;;;;;5053964;28;20669;-78
2024/01/01 05:24:43;;;;;;;6.88;2.33;;;3.30;99.90;;;;;;5044296;28;20082;-78
2024/01/01 05:27:31;;;;;;;8.85;2.83;;;3.20;99.90;;;;;;5056721;28;20049;-78
2024/01/01 05:30:18;;;;;;;7.65;3.13;;;3.20;99.90;;;;;;5082028;28;20044;-76
2024/01/01 05:33:05;;;;;;;8.10;3.50;;;3.10;99.90;;;;;;5081545;28;20072;-76
2024/01/01 05:35:52;;;;;;;9.57;3.05;;;3.10;99.90;;;;;;5076034;28;20036;-74
2024/01/01 05:38:41;;;;;;;5.22;3.05;;;3.20;99.90;;;;;;5066363;28;20594;-79
2024/01/01 05:41:29;;;;;;;8.55;3.40;;;3.20;99.90;;;;;;5053932;28;20071;-78
2024/01/01 05:44:16;;;;;;;6.82;2.92;;;3.20;99.90;;;;;;5059838;28;20048;-78
2024/01/01 05:47:03;;;;;;;9.73;2.85;;;3.20;99.90;;;;;;5056787;28;20045;-80
2024/01/01 05:49:50;;;;;;;9.13;3.28;;;3.40;99.90;;;;;;5058646;28;20667;-80
2024/01/01 05:52:38;;;;;;;9.48;2.78;;;3.40;99.90;;;;;;5056772;28;20499;-78
2024/01/01 05:55:28;;;;;;;9.60;3.03;;;3.50;99.90;;;;;;5056802;28;20425;-78
2024/01/01 05:58:15;;;;;;;7.10;2.90;;;3.50;99.90;;;;;;5044068;28;20134;-78
2024/01/01 06:01:03;;;;;;;8.73;3.47;;;3.50;99.90;;;;;;5054782;28;20055;-79
2024/01/01 06:03:51;;;;;;;5.25;2.35;;;3.50;99.90;;;;;;5063570;28;20527;-75
2024/01/01 06:06:38;;;;;;;8.82;3.40;;;3.50;99.90;;;;;;5066653;28;20056;-79
2024/01/01 06:09:28;;;;;;;6.97;3.45;;;3.40;99.90;;;;;;5067350;28;20052;-80
2024/01/01 06:12:17;;;;;;;6.65;3.00;;;3.50;99.90;;;;;;5059831;28;20056;-79
2024/01/01 06:15:05;;;;;;;8.63;2.58;;;3.50;99.90;;;;;;5075043;28;20043;-78
2024/01/01 06:17:52;;;;;;;6.05;2.28;;;3.50;99.90;;;;;;5073401;28;20040;-78
2024/01/01 06:20:40;;;;;;;10.77;2.47;;;3.50;99.90;;;;;;5060597;28;20115;-78
2024/01/01 06:23:29;;;;;;;7.28;2.55;;;3.50;99.90;;;;;;5059784;28;20754;-79
2024/01/01 06:26:16;;;;;;;13.23;3.55;;;3.60;99.90;;;;;;5062889;28;20394;-76
2024/01/01 06:29:05;;;;;;;10.80;2.70;;;3.60;99.90;;;;;;5059830;28;20052;-77
2024/01/01 06:31:57;;;;;;;7.75;2.42;;;3.70;99.90;;;;;;5058639;28;20792;-77
2024/01/01 06:34:45;;;;;;;5.97;2.35;;;3.80;99.90;;;;;;5061884;28;20040;-77
2024/01/01 06:37:34;;;;;;;7.72;2.35;;;3.80;99.90;;;;;;5042228;28;20037;-78
2024/01/01 06:40:21;;;;;;;7.57;2.30;;;3.90;99.90;;;;;;5036233;28;20071;-76
2024/01/01 06:43:14;;;;;;;19.50;3.13;;;3.90;99.90;;;;;;5025578;28;20045;-77
2024/01/01 06:46:01;;;;;;;8.85;2.92;;;3.70;99.90;;;;;;5044789;28;20056;-78
2024/01/01 06:48:48;;;;;;;8.68;2.53;;;3.60;99.90;;;;;;5040570;28;20037;-74
2024/01/01 06:51:36;;;;;;;11.05;2.78;;;3.60;99.90;;;;;;5063146;28;20036;-76
2024/01/01 06:54:26;;;;;;;7.25;2.53;;;3.60;99.90;;;;;;5052574;28;20067;-77
2024/01/01 06:57:15;;;;;;;8.32;2.50;;;3.60;99.90;;;;;;5042709;28;20068;-76
2024/01/01 07:00:04;;;;;;;7.40;2.40;;;3.60;99.90;;;;;;5040803;28;20053;-77
2024/01/01 07:02:52;;;;;;;10.57;2.50;;;3.50;99.90;;;;;;5049106;28;20037;-79
2024/01/01 07:05:40;;;;;;;13.35;1.90;;;3.50;99.90;;;;;;5044842;28;20053;-80
2024/01/01 07:08:29;;;;;;;7.65;2.13;;;3.60;99.90;;;;;;5040966;28;20045;-80
2024/01/01 07:11:19;;;;;;;5.95;2.33;;;3.70;99.90;;;;;;5037875;28;20117;-78
2024/01/01 07:14:07;;;;;;;9.05;2.65;;;3.70;99.90;;;;;;5042897;28;20049;-80
2024/01/01 07:16:54;;;;;;;9.27;2.92;;;3.70;99.90;;;;;;5044374;28;20108;-77
2024/01/01 07:19:42;;;;;;;10.85;2.50;;;3.60;99.90;;;;;;5050655;28;20057;-77
2024/01/01 07:22:30;;;;;;;5.93;2.55;;;3.50;99.90;;;;;;5047653;28;20045;-81
2024/01/01 07:25:17;;;;;;;11.68;2.78;;;3.40;99.90;;;;;;5044276;28;20049;-76
2024/01/01 07:28:05;;;;;;;10.73;2.67;;;3.20;99.90;;;;;;5043166;28;20029;-76
2024/01/01 07:30:56;;;;;;;7.88;2.13;;;3.20;99.90;;;;;;5047200;28;20139;-78
2024/01/01 07:33:43;;;;;;;10.05;2.67;;;3.20;99.90;;;;;;5043612;28;20048;-76
2024/01/01 07:36:31;;;;;;;11.85;2.45;;;3.20;99.90;;;;;;5048107;28;20041;-78
2024/01/01 07:39:19;;;;;;;11.55;2.13;;;3.20;99.90;;;;;;5038523;28;20045;-78
2024/01/01 07:42:09;;;;;;;11.30;3.00;;;3.20;99.90;;;;;;5037101;28;20044;-76
2024/01/01 07:44:56;;;;;;;20.80;3.63;;;3.20;99.90;;;;;;5035784;28;20045;-77
2024/01/01 07:47:43;;;;;;;12.93;3.45;;;3.20;99.90;;;;;;5040326;28;20057;-78
2024/01/01 07:50:33;;;;;;;25.30;3.22;;;3.30;99.90;;;;;;5042698;28;20064;-79
2024/01/01 07:53:28;;;;;;;9.20;2.60;;;3.30;99.90;;;;;;5041476;28;20577;-79
2024/01/01 07:56:16;;;;;;;13.73;2.80;;;3.30;99.90;;;;;;5041307;28;20088;-76
2024/01/01 07:59:05;;;;;;;10.35;2.85;;;3.40;99.90;;;;;;5042279;28;20048;-78
2024/01/01 08:01:53;;;;;;;9.50;2.50;;;3.40;99.90;;;;;;5040283;28;20066;-76
2024/01/01 08:04:41;;;;;;;8.48;3.03;;;3.50;99.90;;;;;;5026514;28;20132;-78
2024/01/01 08:07:28;;;;;;;16.02;3.70;;;3.60;99.90;;;;;;5061139;28;20040;-78
2024/01/01 08:10:17;;;;;;;16.90;2.75;;;3.60;99.90;;;;;;5064014;28;20052;-74
2024/01/01 08:13:04;;;;;;;12.65;2.50;;;3.50;99.90;;;;;;5066394;28;20048;-79
2024/01/01 08:15:53;;;;;;;12.13;3.35;;;3.50;99.90;;;;;;5059689;28;20037;-78
2024/01/01 08:18:41;;;;;;;12.30;2.53;;;3.50;99.90;;;;;;5057683;28;20045;-77
2024/01/01 08:21:29;;;;;;;12.43;3.22;;;3.60;99.90;;;;;;5048136;28;20037;-75
2024/01/01 08:24:16;;;;;;;16.77;3.05;;;3.60;99.90;;;;;;5065570;28;20044;-75
2024/01/01 08:27:06;;;;;;;13.25;4.10;;;3.80;99.90;;;;;;5058995;28;20051;-78
2024/01/01 08:29:54;;;;;;;9.73;2.65;;;3.90;99.90;;;;;;5056695;28;20063;-78
2024/01/01 08:32:44;;;;;;;11.65;2.50;;;4.10;99.90;;;;;;5033469;28;20043;-76
2024/01/01 08:35:32;;;;;;;13.43;3.05;;;4.20;99.90;;;;;;5029315;28;20060;-77
2024/01/01 08:38:19;;;;;;;10.43;3.05;;;4.30;99.90;;;;;;5051420;28;20043;-77
2024/01/01 08:41:07;;;;;;;8.48;2.80;;;4.50;99.90;;;;;;5036185;28;20049;-77
2024/01/01 08:43:57;;;;;;;10.13;2.78;;;4.60;99.90;;;;;;5038073;28;20112;-77
2024/01/01 08:46:50;;;;;;;7.20;2.30;;;4.60;99.90;;;;;;5034917;28;20064;-75
2024/01/01 08:49:38;;;;;;;12.65;2.58;;;4.80;99.90;;;;;;5057500;28;20044;-74
2024/01/01 08:52:25;;;;;;;11.90;2.20;;;5.00;99.90;;;;;;5038032;28;20037;-77
2024/01/01 08:55:13;;;;;;;6.28;2.00;;;5.00;99.90;;;;;;5043815;28;20040;-76
2024/01/01 08:58:00;;;;;;;8.88;1.98;;;5.00;99.90;;;;;;5031042;28;20128;-77
2024/01/01 09:00:49;;;;;;;7.40;1.90;;;5.10;99.90;;;;;;5030655;28;20033;-77
2024/01/01 09:03:38;;;;;;;5.43;2.30;;;5.00;99.90;;;;;;5035057;28;20067;-78
2024/01/01 09:06:25;;;;;;;12.43;2.50;;;5.10;99.90;;;;;;5017151;28;20135;-76
2024/01/01 09:09:12;;;;;;;13.93;4.43;;;5.20;99.90;;;;;;5039084;28;20049;-75
2024/01/01 09:12:00;;;;;;;12.02;3.10;;;5.30;99.90;;;;;;5031189;28;20057;-76
2024/01/01 09:14:48;;;;;;;6.70;2.35;;;5.40;99.90;;;;;;5037134;28;20041;-77
2024/01/01 09:17:35;;;;;;;8.02;2.47;;;5.50;99.90;;;;;;5031031;28;20076;-77
2024/01/01 09:20:23;;;;;;;7.05;1.90;;;5.70;99.90;;;;;;5037987;28;20044;-77
2024/01/01 09:23:10;;;;;;;9.82;2.22;;;5.60;99.90;;;;;;5017632;28;20104;-78
2024/01/01 09:25:59;;;;;;;8.77;2.35;;;5.40;99.90;;;;;;5038916;28;20040;-78
2024/01/01 09:28:46;;;;;;;5.22;1.80;;;5.40;99.90;;;;;;5041973;28;20040;-74
2024/01/01 09:31:36;;;;;;;6.40;1.50;;;5.40;99.90;;;;;;5058287;28;20088;-76
2024/01/01 09:34:26;;;;;;;6.85;1.80;;;5.60;99.90;;;;;;5042836;28;20392;-78
2024/01/01 09:37:18;;;;;;;3.37;1.43;;;5.80;99.90;;;;;;5056472;28;20070;-77
2024/01/01 09:40:06;;;;;;;6.57;1.90;;;6.00;99.90;;;;;;5055404;28;20040;-77
2024/01/01 09:42:54;;;;;;;6.80;1.67;;;6.30;99.90;;;;;;5065862;28;20114;-76
2024/01/01 09:45:43;;;;;;;3.30;1.40;;;6.60;99.90;;;;;;5064164;28;20044;-77
2024/01/01 09:48:31;;;;;;;7.72;2.10;;;7.00;99.90;;;;;;5054401;28;20122;-78
2024/01/01 09:51:19;;;;;;;8.05;2.22;;;7.50;99.90;;;;;;5062260;28;20045;-74
2024/01/01 09:54:09;;;;;;;5.00;1.60;;;7.60;99.90;;;;;;5065244;28;20132;-79
2024/01/01 09:56:57;;;;;;;10.43;2.03;;;7.70;99.90;;;;;;5059276;28;20605;-76
2024/01/01 09:59:44;;;;;;;3.72;1.50;;;7.50;99.90;;;;;;5052702;28;20040;-77
2024/01/01 10:02:31;;;;;;;5.53;1.65;;;7.40;99.90;;;;;;5055188;28;20053;-77
2024/01/01 10:05:19;;;;;;;10.10;1.70;;;7.30;99.90;;;;;;5057252;28;20584;-76
2024/01/01 10:08:12;;;;;;;7.63;1.73;;;7.50;99.90;;;;;;5052841;28;20048;-78
2024/01/01 10:11:14;;;;;;;6.18;1.60;;;7.80;99.90;;;;;;5054293;28;20044;-77
2024/01/01 10:14:07;;;;;;;6.93;1.77;;;7.60;99.90;;;;;;5058586;28;20193;-77
2024/01/01 10:17:13;;;;;;;8.68;2.47;;;7.50;99.90;;;;;;5052346;28;20040;-79
2024/01/01 10:20:08;;;;;;;10.40;2.30;;;8.00;99.90;;;;;;5040776;28;20505;-78
2024/01/01 10:22:56;;;;;;;9.57;2.28;;;8.10;99.90;;;;;;5056171;28;20043;-76
2024/01/01 10:25:43;;;;;;;7.90;2.00;;;8.20;99.90;;;;;;5058554;28;20109;-77
2024/01/01 10:28:32;;;;;;;8.88;2.40;;;8.00;99.90;;;;;;5056909;28;20474;-77
2024/01/01 10:31:22;;;;;;;10.13;2.38;;;8.10;99.90;;;;;;5059943;28;20062;-75
2024/01/01 10:34:11;;;;;;;10.48;2.20;;;8.30;99.90;;;;;;5059937;28;20100;-78
2024/01/01 10:36:59;;;;;;;7.75;2.35;;;8.40;99.90;;;;;;5056534;28;20044;-77
2024/01/01 10:39:48;;;;;;;12.18;1.98;;;8.10;99.90;;;;;;5078615;28;20585;-75
2024/01/01 10:42:35;;;;;;;5.28;2.08;;;8.20;99.90;;;;;;5073013;28;20744;-75
2024/01/01 10:45:23;;;;;;;6.45;2.28;;;8.20;99.90;;;;;;5089354;28;20055;-77
2024/01/01 10:48:12;;;;;;;9.25;2.03;;;8.40;99.90;;;;;;5064861;28;20135;-77
2024/01/01 10:51:21;;;;;;;8.75;2.10;;;8.40;99.90;;;;;;5046144;28;20049;-77
2024/01/01 10:55:00;;;;;;;9.13;2.22;;;8.60;99.90;;;;;;5062243;28;20090;-78
2024/01/01 10:58:10;;;;;;;10.63;2.53;;;8.20;99.90;;;;;;5047116;28;20114;-76
2024/01/01 11:01:02;;;;;;;8.75;2.42;;;8.00;99.90;;;;;;5054608;28;20036;-77
2024/01/01 11:03:51;;;;;;;12.18;2.78;;;8.40;99.90;;;;;;5055179;28;20055;-74
2024/01/01 11:06:45;;;;;;;9.23;2.42;;;8.60;99.90;;;;;;5071397;28;20041;-77
2024/01/01 11:09:34;;;;;;;11.18;2.67;;;8.50;99.90;;;;;;5068151;28;20060;-76
2024/01/01 11:12:34;;;;;;;10.18;2.35;;;8.80;99.90;;;;;;5061173;28;20372;-77
2024/01/01 11:15:41;;;;;;;17.38;2.40;;;8.70;99.90;;;;;;5045560;28;20036;-77
2024/01/01 11:19:01;;;;;;;11.60;2.47;;;8.50;99.90;;;;;;5063405;28;20175;-76
2024/01/01 11:21:49;;;;;;;8.90;2.53;;;8.60;99.90;;;;;;5062338;28;20044;-77
2024/01/01 11:24:45;;;;;;;12.70;2.10;;;8.80;99.90;;;;;;5081394;28;20070;-75
2024/01/01 11:27:46;;;;;;;10.70;2.50;;;8.60;99.90;;;;;;5057521;28;20631;-76
2024/01/01 11:30:39;;;;;;;16.23;4.03;;;8.30;99.90;;;;;;5077480;28;20035;-76
2024/01/01 11:33:27;;;;;;;11.48;2.40;;;7.80;99.90;;;;;;5072465;28;20072;-77
2024/01/01 11:36:17;;;;;;;14.90;2.30;;;7.70;99.90;;;;;;5058483;28;20040;-77
2024/01/01 11:39:04;;;;;;;13.00;2.67;;;7.80;99.90;;;;;;5055555;28;20509;-79
2024/01/01 11:41:52;;;;;;;10.77;2.60;;;7.70;99.90;;;;;;5066772;28;20033;-80
2024/01/01 11:44:40;;;;;;;10.00;2.45;;;7.40;99.90;;;;;;5053636;28;20044;-77
2024/01/01 11:47:28;;;;;;;13.75;2.22;;;7.30;99.90;;;;;;5054907;28;20924;-76
2024/01/01 11:50:17;;;;;;;10.88;2.97;;;7.20;99.90;;;;;;5054844;28;20041;-77
2024/01/01 11:53:07;;;;;;;15.23;3.00;;;7.40;99.90;;;;;;5050711;28;20177;-76
2024/01/01 11:56:05;;;;;;;12.00;2.30;;;7.60;99.90;;;;;;5059018;28;20052;-79
2024/01/01 11:58:55;;;;;;;13.02;2.53;;;7.50;99.90;;;;;;5055575;28;20408;-78
2024/01/01 12:01:45;;;;;;;7.70;1.98;;;7.40;99.90;;;;;;5058402;28;20036;-79
2024/01/01 12:04:33;;;;;;;11.40;2.08;;;7.30;99.90;;;;;;5072717;28;20036;-77
2024/01/01 12:07:32;;;;;;;12.43;2.63;;;7.30;99.90;;;;;;5067612;28;20047;-77
2024/01/01 12:10:20;;;;;;;15.77;3.47;;;6.90;99.90;;;;;;5054326;28;20056;-78
2024/01/01 12:13:10;;;;;;;10.75;2.70;;;6.20;54.30;;;;;;5055060;28;20394;-75
2024/01/01 12:16:14;;;;;;;12.65;3.55;;;5.60;99.90;;;;;;5059205;28;20672;-74
2024/01/01 12:19:06;;;;;;;16.25;2.80;;;5.50;99.90;;;;;;5059631;28;20503;-77
2024/01/01 12:21:54;;;;;;;14.18;2.85;;;5.50;9.30;;;;;;5064365;28;20040;-79
2024/01/01 12:24:43;;;;;;;20.10;4.20;;;5.50;1.00;;;;;;5043898;28;20048;-78
2024/01/01 12:27:30;;;;;;;12.30;2.47;;;5.80;1.00;;;;;;5064863;28;20052;-75
2024/01/01 12:30:25;;;;;;;14.10;3.03;;;6.00;99.90;;;;;;5071594;28;20041;-77
2024/01/01 12:33:12;;;;;;;15.05;4.72;;;6.10;62.00;;;;;;5081906;28;20054;-75
2024/01/01 12:36:04;;;;;;;11.67;3.20;;;6.10;15.60;;;;;;5080412;28;20108;-77
2024/01/01 12:38:52;;;;;;;8.60;2.78;;;6.50;1.00;;;;;;5079203;28;20028;-75
2024/01/01 12:41:39;;;;;;;14.18;3.10;;;6.70;99.90;;;;;;5080874;28;20055;-76
2024/01/01 12:44:26;;;;;;;15.25;3.13;;;7.00;99.90;;;;;;5077483;28;20535;-76
2024/01/01 12:47:15;;;;;;;9.32;2.72;;;7.30;99.90;;;;;;5082019;28;20055;-76
2024/01/01 12:50:06;;;;;;;13.20;2.67;;;7.20;99.90;;;;;;5073436;28;20057;-75
2024/01/01 12:52:53;;;;;;;10.60;3.13;;;7.20;87.60;;;;;;5075691;28;20067;-75
2024/01/01 12:55:40;;;;;;;11.95;3.58;;;7.20;21.70;;;;;;5079274;28;20041;-78
2024/01/01 12:58:28;;;;;;;17.00;3.22;;;7.50;4.40;;;;;;5057348;28;20415;-77
2024/01/01 13:01:15;;;;;;;15.73;3.17;;;7.70;1.00;;;;;;5056656;28;20063;-78
2024/01/01 13:04:04;;;;;;;17.65;3.92;;;7.90;1.00;;;;;;5054679;28;20062;-79
2024/01/01 13:06:51;;;;;;;11.45;2.75;;;8.10;1.00;;;;;;5039723;28;20040;-77
2024/01/01 13:09:39;;;;;;;13.05;2.88;;;8.20;1.00;;;;;;5050924;28;20542;-77
2024/01/01 13:12:28;;;;;;;14.55;3.50;;;8.10;1.00;;;;;;5056012;28;20045;-75
2024/01/01 13:15:16;;;;;;;15.00;3.00;;;8.00;1.00;;;;;;5063020;28;20051;-77
2024/01/01 13:18:06;;;;;;;14.10;3.33;;;8.00;99.90;;;;;;5062341;28;20119;-76
2024/01/01 13:21:07;;;;;;;;;;;7.80;99.90;;;;;;5062379;28;20045;-76
2024/01/01 13:23:58;;;;;;;12.48;2.95;;;8.10;99.90;;;;;;5052687;28;19920;-79
2024/01/01 13:26:46;;;;;;;13.10;3.00;;;7.90;99.90;;;;;;5045712;28;20528;-77
2024/01/01 13:29:36;;;;;;;11.85;2.72;;;7.60;99.90;;;;;;5062804;28;20055;-81
2024/01/01 13:32:23;;;;;;;15.38;2.85;;;7.50;99.90;;;;;;5039759;28;20049;-78
2024/01/01 13:35:11;;;;;;;15.45;3.50;;;7.40;99.90;;;;;;5059074;28;20129;-77
2024/01/01 13:38:00;;;;;;;13.88;3.03;;;7.30;99.90;;;;;;5060017;28;20072;-78
2024/01/01 13:40:49;;;;;;;16.35;3.60;;;7.20;99.90;;;;;;5060255;28;20040;-79
2024/01/01 13:43:38;;;;;;;13.15;2.70;;;7.10;99.90;;;;;;5047168;28;20041;-77
2024/01/01 13:46:25;;;;;;;11.52;3.03;;;7.00;99.90;;;;;;5048645;28;20052;-78
2024/01/01 13:49:13;;;;;;;14.27;3.10;;;7.00;99.90;;;;;;5058438;28;20036;-78
2024/01/01 13:52:00;;;;;;;13.68;4.38;;;6.90;99.90;;;;;;5042547;28;20052;-75
2024/01/01 13:54:49;;;;;;;12.02;3.30;;;6.90;99.90;;;;;;5046027;28;20044;-78
2024/01/01 13:57:39;;;;;;;11.13;2.72;;;6.90;99.90;;;;;;5058383;28;20060;-79
2024/01/01 14:00:27;;;;;;;11.38;2.80;;;6.90;99.90;;;;;;5065121;28;20063;-78
2024/01/01 14:03:16;;;;;;;13.10;2.58;;;6.80;99.90;;;;;;5068163;28;20037;-78
2024/01/01 14:06:11;;;;;;;17.65;2.63;;;6.90;99.90;;;;;;5072698;28;20044;-79
2024/01/01 14:08:59;;;;;;;10.00;2.60;;;6.90;99.90;;;;;;5076949;28;20115;-81
2024/01/01 14:11:48;;;;;;;12.10;2.88;;;6.90;99.90;;;;;;5070374;28;20037;-76
2024/01/01 14:14:38;;;;;;;12.10;2.80;;;7.00;99.90;;;;;;5039286;28;20087;-76
2024/01/01 14:17:26;;;;;;;15.35;3.03;;;7.00;99.90;;;;;;5064440;28;20045;-77
2024/01/01 14:20:14;;;;;;;10.13;3.25;;;6.80;99.90;;;;;;5064065;28;20057;-76
2024/01/01 14:23:02;;;;;;;9.70;2.40;;;6.80;99.90;;;;;;5042455;28;20216;-76
2024/01/01 14:25:50;;;;;;;15.63;2.65;;;6.70;99.90;;;;;;5053465;28;20518;-77
2024/01/01 14:28:38;;;;;;;7.38;2.25;;;6.60;99.90;;;;;;5053514;28;20037;-77
2024/01/01 14:31:26;;;;;;;9.85;2.33;;;6.60;99.90;;;;;;5056185;28;20520;-78
2024/01/01 14:34:14;;;;;;;8.70;2.13;;;6.50;99.90;;;;;;5041919;28;20045;-75
2024/01/01 14:37:03;;;;;;;12.55;2.95;;;6.60;99.90;;;;;;5055314;28;20044;-74
2024/01/01 14:39:50;;;;;;;10.52;2.55;;;6.60;99.90;;;;;;5062796;28;20152;-74
2024/01/01 14:42:38;;;;;;;13.32;5.93;;;6.60;99.90;;;;;;5086846;28;20066;-75
2024/01/01 14:45:27;;;;;;;13.27;3.63;;;6.60;99.90;;;;;;5046207;28;20584;-77